sensor_id;sensor_type;location;lat;lon;timestamp;P1;durP1;ratioP1;P2;durP2;ratioP2
59410;SDS011;45215;32.610;-115.482;2022-09-20T00:00:44;1.55;;;1.08;;
59410;SDS011;45215;32.610;-115.482;2022-09-20T00:03:12;1.55;;;1.08;;
59410;SDS011;45215;32.610;-115.482;2022-09-20T00:05:41;2.25;;;1.23;;
59410;SDS011;45215;32.610;-115.482;2022-09-20T00:08:12;3.22;;;1.30;;
59410;SDS011;45215;32.610;-115.482;2022-09-20T00:10:40;6.70;;;1.30;;
59410;SDS011;45215;32.610;-115.482;2022-09-20T00:13:08;3.38;;;1.40;;
59410;SDS011;45215;32.610;-115.482;2022-09-20T00:15:43;3.08;;;1.38;;
59410;SDS011;45215;32.610;-115.482;2022-09-20T00:18:10;2.33;;;1.20;;
59410;SDS011;45215;32.610;-115.482;2022-09-20T00:20:46;5.65;;;1.35;;
59410;SDS011;45215;32.610;-115.482;2022-09-20T00:23:13;4.88;;;1.40;;
59410;SDS011;45215;32.610;-115.482;2022-09-20T00:25:40;4.15;;;1.30;;
59410;SDS011;45215;32.610;-115.482;2022-09-20T00:28:10;1.27;;;0.90;;
59410;SDS011;45215;32.610;-115.482;2022-09-20T00:30:37;4.57;;;1.30;;
59410;SDS011;45215;32.610;-115.482;2022-09-20T00:33:03;3.60;;;1.13;;
59410;SDS011;45215;32.610;-115.482;2022-09-20T00:35:29;6.78;;;1.50;;
59410;SDS011;45215;32.610;-115.482;2022-09-20T00:37:56;8.43;;;1.35;;
59410;SDS011;45215;32.610;-115.482;2022-09-20T00:40:23;3.55;;;1.38;;
59410;SDS011;45215;32.610;-115.482;2022-09-20T00:42:53;3.88;;;1.30;;
59410;SDS011;45215;32.610;-115.482;2022-09-20T00:45:23;4.15;;;1.48;;
59410;SDS011;45215;32.610;-115.482;2022-09-20T00:47:56;5.45;;;1.30;;
59410;SDS011;45215;32.610;-115.482;2022-09-20T00:53:42;5.13;;;1.20;;
59410;SDS011;45215;32.610;-115.482;2022-09-20T00:58:50;9.65;;;1.60;;
59410;SDS011;45215;32.610;-115.482;2022-09-20T01:01:40;8.82;;;1.40;;
59410;SDS011;45215;32.610;-115.482;2022-09-20T01:04:11;5.68;;;1.30;;
59410;SDS011;45215;32.610;-115.482;2022-09-20T01:06:40;3.90;;;1.52;;
59410;SDS011;45215;32.610;-115.482;2022-09-20T01:09:08;3.35;;;1.30;;
59410;SDS011;45215;32.610;-115.482;2022-09-20T01:11:35;4.28;;;1.42;;
59410;SDS011;45215;32.610;-115.482;2022-09-20T01:14:02;2.83;;;1.23;;
59410;SDS011;45215;32.610;-115.482;2022-09-20T01:16:29;3.38;;;1.20;;
59410;SDS011;45215;32.610;-115.482;2022-09-20T01:18:57;3.33;;;1.10;;
59410;SDS011;45215;32.610;-115.482;2022-09-20T01:21:27;2.88;;;1.20;;
59410;SDS011;45215;32.610;-115.482;2022-09-20T01:26:53;2.03;;;1.13;;
59410;SDS011;45215;32.610;-115.482;2022-09-20T01:32:01;2.45;;;1.20;;
59410;SDS011;45215;32.610;-115.482;2022-09-20T01:34:35;1.97;;;1.20;;
59410;SDS011;45215;32.610;-115.482;2022-09-20T01:37:13;1.63;;;1.10;;
59410;SDS011;45215;32.610;-115.482;2022-09-20T01:40:17;3.15;;;1.13;;
59410;SDS011;45215;32.610;-115.482;2022-09-20T01:42:57;36.72;;;2.50;;
59410;SDS011;45215;32.610;-115.482;2022-09-20T01:45:27;11.25;;;1.60;;
59410;SDS011;45215;32.610;-115.482;2022-09-20T01:48:02;5.05;;;1.20;;
59410;SDS011;45215;32.610;-115.482;2022-09-20T02:05:03;2.35;;;1.30;;
59410;SDS011;45215;32.610;-115.482;2022-09-20T02:10:37;2.95;;;1.17;;
59410;SDS011;45215;32.610;-115.482;2022-09-20T02:13:32;1.73;;;1.10;;
59410;SDS011;45215;32.610;-115.482;2022-09-20T02:26:38;4.05;;;1.40;;
59410;SDS011;45215;32.610;-115.482;2022-09-20T02:31:57;5.07;;;1.48;;
59410;SDS011;45215;32.610;-115.482;2022-09-20T02:45:53;4.20;;;1.60;;
59410;SDS011;45215;32.610;-115.482;2022-09-20T02:48:41;5.22;;;1.42;;
59410;SDS011;45215;32.610;-115.482;2022-09-20T02:51:24;2.80;;;1.38;;
59410;SDS011;45215;32.610;-115.482;2022-09-20T02:54:09;5.40;;;1.60;;
59410;SDS011;45215;32.610;-115.482;2022-09-20T03:00:09;3.80;;;1.67;;
59410;SDS011;45215;32.610;-115.482;2022-09-20T03:05:30;3.05;;;1.60;;
59410;SDS011;45215;32.610;-115.482;2022-09-20T03:11:02;5.03;;;1.88;;
59410;SDS011;45215;32.610;-115.482;2022-09-20T03:13:42;4.35;;;1.95;;
59410;SDS011;45215;32.610;-115.482;2022-09-20T03:16:30;2.42;;;1.67;;
59410;SDS011;45215;32.610;-115.482;2022-09-20T03:22:47;4.03;;;1.70;;
59410;SDS011;45215;32.610;-115.482;2022-09-20T03:39:01;5.75;;;2.10;;
59410;SDS011;45215;32.610;-115.482;2022-09-20T03:41:59;4.18;;;2.03;;
59410;SDS011;45215;32.610;-115.482;2022-09-20T03:47:54;4.95;;;2.47;;
59410;SDS011;45215;32.610;-115.482;2022-09-20T03:56:22;5.15;;;2.30;;
59410;SDS011;45215;32.610;-115.482;2022-09-20T03:59:16;8.52;;;2.50;;
59410;SDS011;45215;32.610;-115.482;2022-09-20T04:02:07;6.90;;;2.20;;
59410;SDS011;45215;32.610;-115.482;2022-09-20T04:04:53;3.72;;;2.20;;
59410;SDS011;45215;32.610;-115.482;2022-09-20T04:07:29;3.40;;;2.20;;
59410;SDS011;45215;32.610;-115.482;2022-09-20T04:21:53;3.00;;;1.92;;
59410;SDS011;45215;32.610;-115.482;2022-09-20T04:38:17;2.25;;;1.80;;
59410;SDS011;45215;32.610;-115.482;2022-09-20T04:46:12;4.28;;;2.05;;
59410;SDS011;45215;32.610;-115.482;2022-09-20T04:51:53;3.73;;;1.97;;
59410;SDS011;45215;32.610;-115.482;2022-09-20T05:09:26;2.42;;;1.70;;
59410;SDS011;45215;32.610;-115.482;2022-09-20T05:21:13;3.67;;;1.70;;
59410;SDS011;45215;32.610;-115.482;2022-09-20T05:35:32;2.28;;;1.88;;
59410;SDS011;45215;32.610;-115.482;2022-09-20T05:38:29;2.42;;;1.65;;
59410;SDS011;45215;32.610;-115.482;2022-09-20T05:52:43;3.22;;;1.90;;
59410;SDS011;45215;32.610;-115.482;2022-09-20T06:06:54;6.75;;;1.98;;
59410;SDS011;45215;32.610;-115.482;2022-09-20T06:14:53;3.80;;;1.80;;
59410;SDS011;45215;32.610;-115.482;2022-09-20T06:20:24;4.05;;;1.83;;
59410;SDS011;45215;32.610;-115.482;2022-09-20T06:23:13;3.03;;;2.17;;
59410;SDS011;45215;32.610;-115.482;2022-09-20T06:25:41;3.50;;;1.73;;
59410;SDS011;45215;32.610;-115.482;2022-09-20T06:28:15;4.25;;;1.80;;
59410;SDS011;45215;32.610;-115.482;2022-09-20T06:30:45;2.40;;;1.73;;
59410;SDS011;45215;32.610;-115.482;2022-09-20T06:33:15;2.97;;;1.80;;
59410;SDS011;45215;32.610;-115.482;2022-09-20T06:35:46;2.28;;;1.60;;
59410;SDS011;45215;32.610;-115.482;2022-09-20T06:41:06;3.35;;;1.70;;
59410;SDS011;45215;32.610;-115.482;2022-09-20T06:43:54;2.97;;;1.70;;
59410;SDS011;45215;32.610;-115.482;2022-09-20T06:46:31;3.47;;;1.58;;
59410;SDS011;45215;32.610;-115.482;2022-09-20T06:49:00;2.10;;;1.42;;
59410;SDS011;45215;32.610;-115.482;2022-09-20T06:51:32;3.63;;;1.52;;
59410;SDS011;45215;32.610;-115.482;2022-09-20T06:54:00;2.65;;;1.58;;
59410;SDS011;45215;32.610;-115.482;2022-09-20T06:56:27;3.33;;;1.83;;
59410;SDS011;45215;32.610;-115.482;2022-09-20T06:59:03;2.78;;;1.85;;
59410;SDS011;45215;32.610;-115.482;2022-09-20T07:01:32;3.17;;;1.70;;
59410;SDS011;45215;32.610;-115.482;2022-09-20T07:03:59;2.47;;;1.60;;
59410;SDS011;45215;32.610;-115.482;2022-09-20T07:06:25;3.50;;;1.90;;
59410;SDS011;45215;32.610;-115.482;2022-09-20T07:08:53;3.25;;;1.58;;
59410;SDS011;45215;32.610;-115.482;2022-09-20T07:11:19;2.45;;;1.65;;
59410;SDS011;45215;32.610;-115.482;2022-09-20T07:13:51;1.75;;;1.63;;
59410;SDS011;45215;32.610;-115.482;2022-09-20T07:16:20;2.15;;;1.63;;
59410;SDS011;45215;32.610;-115.482;2022-09-20T07:18:47;1.77;;;1.60;;
59410;SDS011;45215;32.610;-115.482;2022-09-20T07:21:14;1.92;;;1.58;;
59410;SDS011;45215;32.610;-115.482;2022-09-20T07:23:42;2.13;;;1.70;;
59410;SDS011;45215;32.610;-115.482;2022-09-20T07:26:22;1.90;;;1.60;;
59410;SDS011;45215;32.610;-115.482;2022-09-20T07:28:50;4.10;;;1.60;;
59410;SDS011;45215;32.610;-115.482;2022-09-20T07:31:17;3.05;;;1.58;;
59410;SDS011;45215;32.610;-115.482;2022-09-20T07:33:45;2.40;;;1.63;;
59410;SDS011;45215;32.610;-115.482;2022-09-20T07:36:11;2.15;;;1.70;;
59410;SDS011;45215;32.610;-115.482;2022-09-20T07:38:38;2.00;;;1.45;;
59410;SDS011;45215;32.610;-115.482;2022-09-20T07:41:06;1.67;;;1.40;;
59410;SDS011;45215;32.610;-115.482;2022-09-20T07:43:33;2.60;;;1.70;;
59410;SDS011;45215;32.610;-115.482;2022-09-20T07:45:59;1.98;;;1.45;;
59410;SDS011;45215;32.610;-115.482;2022-09-20T07:48:44;1.77;;;1.50;;
59410;SDS011;45215;32.610;-115.482;2022-09-20T07:51:11;3.42;;;1.60;;
59410;SDS011;45215;32.610;-115.482;2022-09-20T07:53:38;1.95;;;1.48;;
59410;SDS011;45215;32.610;-115.482;2022-09-20T07:56:14;3.10;;;1.48;;
59410;SDS011;45215;32.610;-115.482;2022-09-20T07:58:42;1.67;;;1.48;;
59410;SDS011;45215;32.610;-115.482;2022-09-20T08:01:10;2.10;;;1.50;;
59410;SDS011;45215;32.610;-115.482;2022-09-20T08:03:37;2.22;;;1.40;;
59410;SDS011;45215;32.610;-115.482;2022-09-20T08:06:08;2.38;;;1.67;;
59410;SDS011;45215;32.610;-115.482;2022-09-20T08:08:38;2.90;;;1.90;;
59410;SDS011;45215;32.610;-115.482;2022-09-20T08:11:06;2.50;;;1.58;;
59410;SDS011;45215;32.610;-115.482;2022-09-20T08:13:38;2.15;;;1.67;;
59410;SDS011;45215;32.610;-115.482;2022-09-20T08:16:15;2.83;;;1.70;;
59410;SDS011;45215;32.610;-115.482;2022-09-20T08:19:00;2.72;;;2.08;;
59410;SDS011;45215;32.610;-115.482;2022-09-20T08:21:29;2.30;;;1.80;;
59410;SDS011;45215;32.610;-115.482;2022-09-20T08:23:57;3.13;;;1.92;;
59410;SDS011;45215;32.610;-115.482;2022-09-20T08:26:24;3.17;;;1.65;;
59410;SDS011;45215;32.610;-115.482;2022-09-20T08:28:53;3.35;;;1.67;;
59410;SDS011;45215;32.610;-115.482;2022-09-20T08:31:21;2.63;;;1.60;;
59410;SDS011;45215;32.610;-115.482;2022-09-20T08:33:52;2.60;;;1.80;;
59410;SDS011;45215;32.610;-115.482;2022-09-20T08:36:20;3.15;;;1.90;;
59410;SDS011;45215;32.610;-115.482;2022-09-20T08:38:48;3.65;;;1.90;;
59410;SDS011;45215;32.610;-115.482;2022-09-20T08:44:06;2.92;;;1.70;;
59410;SDS011;45215;32.610;-115.482;2022-09-20T08:46:50;2.13;;;1.60;;
59410;SDS011;45215;32.610;-115.482;2022-09-20T08:49:25;3.97;;;2.30;;
59410;SDS011;45215;32.610;-115.482;2022-09-20T08:51:52;3.55;;;1.92;;
59410;SDS011;45215;32.610;-115.482;2022-09-20T08:54:23;3.63;;;2.00;;
59410;SDS011;45215;32.610;-115.482;2022-09-20T08:56:50;3.55;;;2.00;;
59410;SDS011;45215;32.610;-115.482;2022-09-20T08:59:18;3.05;;;2.13;;
59410;SDS011;45215;32.610;-115.482;2022-09-20T09:01:47;2.72;;;2.08;;
59410;SDS011;45215;32.610;-115.482;2022-09-20T09:04:15;4.30;;;2.05;;
59410;SDS011;45215;32.610;-115.482;2022-09-20T09:06:43;3.20;;;2.20;;
59410;SDS011;45215;32.610;-115.482;2022-09-20T09:09:26;2.75;;;2.13;;
59410;SDS011;45215;32.610;-115.482;2022-09-20T09:11:54;2.50;;;2.00;;
59410;SDS011;45215;32.610;-115.482;2022-09-20T09:14:24;3.47;;;2.10;;
59410;SDS011;45215;32.610;-115.482;2022-09-20T09:17:11;3.28;;;2.10;;
59410;SDS011;45215;32.610;-115.482;2022-09-20T09:19:43;3.67;;;1.95;;
59410;SDS011;45215;32.610;-115.482;2022-09-20T09:22:16;2.78;;;2.00;;
59410;SDS011;45215;32.610;-115.482;2022-09-20T09:27:33;3.30;;;2.35;;
59410;SDS011;45215;32.610;-115.482;2022-09-20T09:29:59;2.88;;;2.00;;
59410;SDS011;45215;32.610;-115.482;2022-09-20T09:32:27;3.42;;;2.00;;
59410;SDS011;45215;32.610;-115.482;2022-09-20T09:34:56;4.45;;;2.30;;
59410;SDS011;45215;32.610;-115.482;2022-09-20T09:37:51;3.55;;;2.20;;
59410;SDS011;45215;32.610;-115.482;2022-09-20T09:40:19;2.80;;;1.95;;
59410;SDS011;45215;32.610;-115.482;2022-09-20T09:42:49;3.78;;;2.05;;
59410;SDS011;45215;32.610;-115.482;2022-09-20T09:45:32;4.40;;;2.00;;
59410;SDS011;45215;32.610;-115.482;2022-09-20T09:48:18;3.25;;;2.10;;
59410;SDS011;45215;32.610;-115.482;2022-09-20T09:50:45;2.97;;;2.10;;
59410;SDS011;45215;32.610;-115.482;2022-09-20T09:53:13;4.25;;;2.17;;
59410;SDS011;45215;32.610;-115.482;2022-09-20T10:04:37;3.28;;;2.20;;
59410;SDS011;45215;32.610;-115.482;2022-09-20T10:07:24;3.80;;;2.22;;
59410;SDS011;45215;32.610;-115.482;2022-09-20T10:19:05;2.90;;;1.98;;
59410;SDS011;45215;32.610;-115.482;2022-09-20T10:22:03;3.10;;;2.20;;
59410;SDS011;45215;32.610;-115.482;2022-09-20T10:24:49;2.83;;;2.05;;
59410;SDS011;45215;32.610;-115.482;2022-09-20T10:27:59;3.72;;;2.00;;
59410;SDS011;45215;32.610;-115.482;2022-09-20T10:38:51;3.22;;;2.20;;
59410;SDS011;45215;32.610;-115.482;2022-09-20T10:45:01;2.80;;;1.90;;
59410;SDS011;45215;32.610;-115.482;2022-09-20T10:47:41;4.13;;;2.13;;
59410;SDS011;45215;32.610;-115.482;2022-09-20T11:01:40;2.13;;;1.90;;
59410;SDS011;45215;32.610;-115.482;2022-09-20T11:10:05;2.92;;;2.10;;
59410;SDS011;45215;32.610;-115.482;2022-09-20T11:12:50;2.53;;;1.90;;
59410;SDS011;45215;32.610;-115.482;2022-09-20T11:15:30;3.42;;;1.70;;
59410;SDS011;45215;32.610;-115.482;2022-09-20T11:21:29;2.47;;;1.90;;
59410;SDS011;45215;32.610;-115.482;2022-09-20T11:23:46;3.13;;;2.00;;
59410;SDS011;45215;32.610;-115.482;2022-09-20T11:27:07;3.92;;;2.20;;
59410;SDS011;45215;32.610;-115.482;2022-09-20T11:32:11;2.92;;;2.03;;
59410;SDS011;45215;32.610;-115.482;2022-09-20T11:35:02;2.13;;;1.70;;
59410;SDS011;45215;32.610;-115.482;2022-09-20T11:37:46;2.38;;;1.90;;
59410;SDS011;45215;32.610;-115.482;2022-09-20T11:42:51;2.55;;;1.90;;
59410;SDS011;45215;32.610;-115.482;2022-09-20T11:45:20;2.08;;;1.60;;
59410;SDS011;45215;32.610;-115.482;2022-09-20T11:47:52;2.03;;;1.70;;
59410;SDS011;45215;32.610;-115.482;2022-09-20T11:50:41;2.60;;;1.85;;
59410;SDS011;45215;32.610;-115.482;2022-09-20T11:58:50;3.58;;;1.83;;
59410;SDS011;45215;32.610;-115.482;2022-09-20T12:01:28;2.50;;;2.05;;
59410;SDS011;45215;32.610;-115.482;2022-09-20T12:03:59;3.90;;;2.15;;
59410;SDS011;45215;32.610;-115.482;2022-09-20T12:06:32;2.72;;;1.98;;
59410;SDS011;45215;32.610;-115.482;2022-09-20T12:09:02;3.65;;;1.90;;
59410;SDS011;45215;32.610;-115.482;2022-09-20T12:11:34;3.15;;;2.05;;
59410;SDS011;45215;32.610;-115.482;2022-09-20T12:14:27;4.93;;;1.90;;
59410;SDS011;45215;32.610;-115.482;2022-09-20T12:16:53;2.47;;;1.77;;
59410;SDS011;45215;32.610;-115.482;2022-09-20T12:24:28;3.95;;;2.13;;
59410;SDS011;45215;32.610;-115.482;2022-09-20T12:26:58;3.08;;;2.13;;
59410;SDS011;45215;32.610;-115.482;2022-09-20T12:31:55;3.72;;;2.00;;
59410;SDS011;45215;32.610;-115.482;2022-09-20T12:39:24;3.00;;;2.00;;
59410;SDS011;45215;32.610;-115.482;2022-09-20T12:41:57;7.53;;;2.22;;
59410;SDS011;45215;32.610;-115.482;2022-09-20T12:49:41;4.05;;;2.10;;
59410;SDS011;45215;32.610;-115.482;2022-09-20T12:52:34;4.10;;;2.13;;
59410;SDS011;45215;32.610;-115.482;2022-09-20T12:55:32;8.52;;;2.10;;
59410;SDS011;45215;32.610;-115.482;2022-09-20T12:58:17;11.18;;;2.38;;
59410;SDS011;45215;32.610;-115.482;2022-09-20T13:00:49;10.20;;;2.90;;
59410;SDS011;45215;32.610;-115.482;2022-09-20T13:08:31;10.23;;;3.28;;
59410;SDS011;45215;32.610;-115.482;2022-09-20T13:11:20;10.73;;;3.53;;
59410;SDS011;45215;32.610;-115.482;2022-09-20T13:14:30;8.38;;;3.10;;
59410;SDS011;45215;32.610;-115.482;2022-09-20T13:16:59;8.55;;;3.10;;
59410;SDS011;45215;32.610;-115.482;2022-09-20T13:19:34;7.60;;;3.63;;
59410;SDS011;45215;32.610;-115.482;2022-09-20T13:24:39;13.38;;;3.63;;
59410;SDS011;45215;32.610;-115.482;2022-09-20T13:27:22;7.55;;;3.22;;
59410;SDS011;45215;32.610;-115.482;2022-09-20T13:35:05;17.90;;;4.60;;
59410;SDS011;45215;32.610;-115.482;2022-09-20T13:37:35;9.93;;;3.88;;
59410;SDS011;45215;32.610;-115.482;2022-09-20T13:40:24;8.95;;;3.65;;
59410;SDS011;45215;32.610;-115.482;2022-09-20T13:42:58;10.98;;;3.78;;
59410;SDS011;45215;32.610;-115.482;2022-09-20T13:45:31;11.35;;;3.85;;
59410;SDS011;45215;32.610;-115.482;2022-09-20T13:47:58;10.52;;;3.80;;
59410;SDS011;45215;32.610;-115.482;2022-09-20T13:52:59;8.30;;;3.38;;
59410;SDS011;45215;32.610;-115.482;2022-09-20T13:55:27;7.32;;;3.67;;
59410;SDS011;45215;32.610;-115.482;2022-09-20T13:58:08;8.40;;;3.58;;
59410;SDS011;45215;32.610;-115.482;2022-09-20T14:00:52;6.30;;;3.22;;
59410;SDS011;45215;32.610;-115.482;2022-09-20T14:03:26;5.37;;;3.30;;
59410;SDS011;45215;32.610;-115.482;2022-09-20T14:05:55;5.40;;;2.92;;
59410;SDS011;45215;32.610;-115.482;2022-09-20T14:11:21;6.93;;;2.97;;
59410;SDS011;45215;32.610;-115.482;2022-09-20T14:13:53;6.45;;;3.03;;
59410;SDS011;45215;32.610;-115.482;2022-09-20T14:16:22;7.20;;;3.00;;
59410;SDS011;45215;32.610;-115.482;2022-09-20T14:18:53;5.35;;;3.05;;
59410;SDS011;45215;32.610;-115.482;2022-09-20T14:21:23;6.68;;;3.05;;
59410;SDS011;45215;32.610;-115.482;2022-09-20T14:23:56;4.63;;;2.92;;
59410;SDS011;45215;32.610;-115.482;2022-09-20T14:26:58;5.22;;;2.70;;
59410;SDS011;45215;32.610;-115.482;2022-09-20T14:29:28;7.35;;;2.63;;
59410;SDS011;45215;32.610;-115.482;2022-09-20T14:32:20;4.55;;;2.70;;
59410;SDS011;45215;32.610;-115.482;2022-09-20T14:35:13;4.95;;;2.95;;
59410;SDS011;45215;32.610;-115.482;2022-09-20T14:40:41;5.22;;;2.78;;
59410;SDS011;45215;32.610;-115.482;2022-09-20T14:43:29;5.47;;;2.88;;
59410;SDS011;45215;32.610;-115.482;2022-09-20T14:45:58;4.90;;;2.90;;
59410;SDS011;45215;32.610;-115.482;2022-09-20T14:48:35;5.65;;;2.88;;
59410;SDS011;45215;32.610;-115.482;2022-09-20T14:53:46;6.25;;;2.38;;
59410;SDS011;45215;32.610;-115.482;2022-09-20T14:56:15;7.50;;;2.85;;
59410;SDS011;45215;32.610;-115.482;2022-09-20T15:01:27;6.28;;;3.22;;
59410;SDS011;45215;32.610;-115.482;2022-09-20T15:03:54;9.52;;;3.47;;
59410;SDS011;45215;32.610;-115.482;2022-09-20T15:06:21;7.93;;;3.08;;
59410;SDS011;45215;32.610;-115.482;2022-09-20T15:08:48;10.00;;;3.10;;
59410;SDS011;45215;32.610;-115.482;2022-09-20T15:11:18;6.63;;;3.22;;
59410;SDS011;45215;32.610;-115.482;2022-09-20T15:13:44;4.75;;;3.53;;
59410;SDS011;45215;32.610;-115.482;2022-09-20T15:16:11;6.28;;;3.03;;
59410;SDS011;45215;32.610;-115.482;2022-09-20T15:18:45;10.60;;;3.25;;
59410;SDS011;45215;32.610;-115.482;2022-09-20T15:21:11;20.33;;;4.07;;
59410;SDS011;45215;32.610;-115.482;2022-09-20T15:23:38;6.55;;;3.10;;
59410;SDS011;45215;32.610;-115.482;2022-09-20T15:26:05;6.57;;;2.65;;
59410;SDS011;45215;32.610;-115.482;2022-09-20T15:28:33;7.03;;;3.00;;
59410;SDS011;45215;32.610;-115.482;2022-09-20T15:30:59;6.25;;;3.20;;
59410;SDS011;45215;32.610;-115.482;2022-09-20T15:33:27;17.23;;;3.45;;
59410;SDS011;45215;32.610;-115.482;2022-09-20T15:35:55;6.80;;;3.03;;
59410;SDS011;45215;32.610;-115.482;2022-09-20T15:38:22;6.68;;;2.47;;
59410;SDS011;45215;32.610;-115.482;2022-09-20T15:40:51;6.68;;;2.67;;
59410;SDS011;45215;32.610;-115.482;2022-09-20T15:43:18;5.28;;;2.70;;
59410;SDS011;45215;32.610;-115.482;2022-09-20T15:45:58;6.60;;;3.00;;
59410;SDS011;45215;32.610;-115.482;2022-09-20T15:48:27;3.20;;;2.38;;
59410;SDS011;45215;32.610;-115.482;2022-09-20T15:54:15;5.43;;;2.55;;
59410;SDS011;45215;32.610;-115.482;2022-09-20T15:56:27;7.43;;;2.70;;
59410;SDS011;45215;32.610;-115.482;2022-09-20T15:58:56;5.13;;;2.63;;
59410;SDS011;45215;32.610;-115.482;2022-09-20T16:01:28;6.20;;;2.53;;
59410;SDS011;45215;32.610;-115.482;2022-09-20T16:03:56;8.40;;;2.60;;
59410;SDS011;45215;32.610;-115.482;2022-09-20T16:06:22;4.50;;;2.40;;
59410;SDS011;45215;32.610;-115.482;2022-09-20T16:08:49;5.53;;;2.20;;
59410;SDS011;45215;32.610;-115.482;2022-09-20T16:11:17;8.48;;;2.60;;
59410;SDS011;45215;32.610;-115.482;2022-09-20T16:13:54;5.97;;;2.67;;
59410;SDS011;45215;32.610;-115.482;2022-09-20T16:16:22;5.75;;;2.42;;
59410;SDS011;45215;32.610;-115.482;2022-09-20T16:18:49;4.35;;;2.33;;
59410;SDS011;45215;32.610;-115.482;2022-09-20T16:21:35;2.85;;;1.98;;
59410;SDS011;45215;32.610;-115.482;2022-09-20T16:24:04;5.07;;;2.47;;
59410;SDS011;45215;32.610;-115.482;2022-09-20T16:26:31;5.55;;;2.10;;
59410;SDS011;45215;32.610;-115.482;2022-09-20T16:29:02;5.63;;;2.28;;
59410;SDS011;45215;32.610;-115.482;2022-09-20T16:34:15;6.68;;;2.20;;
59410;SDS011;45215;32.610;-115.482;2022-09-20T16:36:46;4.72;;;2.05;;
59410;SDS011;45215;32.610;-115.482;2022-09-20T16:39:14;5.45;;;2.42;;
59410;SDS011;45215;32.610;-115.482;2022-09-20T16:41:41;6.10;;;2.33;;
59410;SDS011;45215;32.610;-115.482;2022-09-20T16:44:09;9.60;;;2.72;;
59410;SDS011;45215;32.610;-115.482;2022-09-20T16:46:35;4.85;;;2.22;;
59410;SDS011;45215;32.610;-115.482;2022-09-20T16:49:03;5.55;;;2.00;;
59410;SDS011;45215;32.610;-115.482;2022-09-20T16:51:32;8.38;;;2.28;;
59410;SDS011;45215;32.610;-115.482;2022-09-20T16:54:01;9.10;;;2.30;;
59410;SDS011;45215;32.610;-115.482;2022-09-20T16:56:46;7.35;;;2.33;;
59410;SDS011;45215;32.610;-115.482;2022-09-20T16:59:15;6.70;;;2.22;;
59410;SDS011;45215;32.610;-115.482;2022-09-20T17:01:43;7.05;;;2.45;;
59410;SDS011;45215;32.610;-115.482;2022-09-20T17:04:10;5.07;;;2.28;;
59410;SDS011;45215;32.610;-115.482;2022-09-20T17:06:41;7.40;;;2.22;;
59410;SDS011;45215;32.610;-115.482;2022-09-20T17:09:08;8.25;;;2.38;;
59410;SDS011;45215;32.610;-115.482;2022-09-20T17:11:36;5.90;;;2.55;;
59410;SDS011;45215;32.610;-115.482;2022-09-20T17:14:07;7.70;;;2.50;;
59410;SDS011;45215;32.610;-115.482;2022-09-20T17:16:35;7.28;;;2.60;;
59410;SDS011;45215;32.610;-115.482;2022-09-20T17:19:06;8.50;;;2.60;;
59410;SDS011;45215;32.610;-115.482;2022-09-20T17:21:36;8.18;;;2.70;;
59410;SDS011;45215;32.610;-115.482;2022-09-20T17:24:04;7.78;;;2.58;;
59410;SDS011;45215;32.610;-115.482;2022-09-20T17:26:35;20.63;;;12.82;;
59410;SDS011;45215;32.610;-115.482;2022-09-20T17:29:05;63.60;;;24.75;;
59410;SDS011;45215;32.610;-115.482;2022-09-20T17:31:35;71.35;;;27.05;;
59410;SDS011;45215;32.610;-115.482;2022-09-20T17:34:04;102.25;;;41.70;;
59410;SDS011;45215;32.610;-115.482;2022-09-20T17:36:34;115.80;;;49.30;;
59410;SDS011;45215;32.610;-115.482;2022-09-20T17:39:11;108.50;;;45.95;;
59410;SDS011;45215;32.610;-115.482;2022-09-20T17:41:39;98.47;;;42.25;;
59410;SDS011;45215;32.610;-115.482;2022-09-20T17:44:06;100.40;;;45.65;;
59410;SDS011;45215;32.610;-115.482;2022-09-20T17:46:41;82.45;;;42.83;;
59410;SDS011;45215;32.610;-115.482;2022-09-20T17:49:10;82.18;;;40.63;;
59410;SDS011;45215;32.610;-115.482;2022-09-20T17:51:38;73.82;;;39.05;;
59410;SDS011;45215;32.610;-115.482;2022-09-20T17:54:07;72.10;;;37.30;;
59410;SDS011;45215;32.610;-115.482;2022-09-20T17:56:38;72.22;;;35.67;;
59410;SDS011;45215;32.610;-115.482;2022-09-20T17:59:08;70.07;;;36.30;;
59410;SDS011;45215;32.610;-115.482;2022-09-20T18:01:36;60.40;;;32.15;;
59410;SDS011;45215;32.610;-115.482;2022-09-20T18:04:03;58.15;;;31.30;;
59410;SDS011;45215;32.610;-115.482;2022-09-20T18:06:31;60.00;;;30.05;;
59410;SDS011;45215;32.610;-115.482;2022-09-20T18:09:10;58.33;;;30.15;;
59410;SDS011;45215;32.610;-115.482;2022-09-20T18:11:42;53.95;;;27.25;;
59410;SDS011;45215;32.610;-115.482;2022-09-20T18:14:10;47.28;;;26.17;;
59410;SDS011;45215;32.610;-115.482;2022-09-20T18:16:39;46.00;;;25.52;;
59410;SDS011;45215;32.610;-115.482;2022-09-20T18:19:08;43.70;;;23.75;;
59410;SDS011;45215;32.610;-115.482;2022-09-20T18:21:35;38.55;;;22.50;;
59410;SDS011;45215;32.610;-115.482;2022-09-20T18:24:06;36.60;;;21.27;;
59410;SDS011;45215;32.610;-115.482;2022-09-20T18:26:34;37.92;;;20.90;;
59410;SDS011;45215;32.610;-115.482;2022-09-20T18:29:06;38.70;;;17.55;;
59410;SDS011;45215;32.610;-115.482;2022-09-20T18:31:38;32.92;;;18.67;;
59410;SDS011;45215;32.610;-115.482;2022-09-20T18:34:09;30.05;;;17.63;;
59410;SDS011;45215;32.610;-115.482;2022-09-20T18:36:39;35.17;;;17.20;;
59410;SDS011;45215;32.610;-115.482;2022-09-20T18:39:06;28.50;;;15.63;;
59410;SDS011;45215;32.610;-115.482;2022-09-20T18:41:34;29.23;;;15.85;;
59410;SDS011;45215;32.610;-115.482;2022-09-20T18:44:03;29.85;;;15.02;;
59410;SDS011;45215;32.610;-115.482;2022-09-20T18:46:31;26.90;;;14.52;;
59410;SDS011;45215;32.610;-115.482;2022-09-20T18:49:03;22.80;;;13.70;;
59410;SDS011;45215;32.610;-115.482;2022-09-20T18:51:34;23.10;;;12.88;;
59410;SDS011;45215;32.610;-115.482;2022-09-20T18:54:00;22.35;;;13.13;;
59410;SDS011;45215;32.610;-115.482;2022-09-20T18:56:27;22.70;;;12.18;;
59410;SDS011;45215;32.610;-115.482;2022-09-20T18:58:59;21.83;;;11.75;;
59410;SDS011;45215;32.610;-115.482;2022-09-20T19:12:05;16.80;;;9.98;;
59410;SDS011;45215;32.610;-115.482;2022-09-20T19:17:56;16.38;;;8.85;;
59410;SDS011;45215;32.610;-115.482;2022-09-20T19:21:27;16.10;;;8.73;;
59410;SDS011;45215;32.610;-115.482;2022-09-20T19:28:39;15.50;;;8.38;;
59410;SDS011;45215;32.610;-115.482;2022-09-20T19:31:09;10.75;;;6.90;;
59410;SDS011;45215;32.610;-115.482;2022-09-20T19:33:44;11.38;;;6.90;;
59410;SDS011;45215;32.610;-115.482;2022-09-20T19:36:11;12.18;;;6.60;;
59410;SDS011;45215;32.610;-115.482;2022-09-20T19:41:37;10.15;;;5.55;;
59410;SDS011;45215;32.610;-115.482;2022-09-20T19:44:34;8.85;;;5.30;;
59410;SDS011;45215;32.610;-115.482;2022-09-20T19:50:13;8.77;;;5.35;;
59410;SDS011;45215;32.610;-115.482;2022-09-20T19:52:52;9.57;;;4.95;;
59410;SDS011;45215;32.610;-115.482;2022-09-20T19:55:21;8.02;;;5.05;;
59410;SDS011;45215;32.610;-115.482;2022-09-20T19:57:48;6.95;;;4.35;;
59410;SDS011;45215;32.610;-115.482;2022-09-20T20:00:18;8.80;;;5.00;;
59410;SDS011;45215;32.610;-115.482;2022-09-20T20:02:45;6.53;;;4.10;;
59410;SDS011;45215;32.610;-115.482;2022-09-20T20:05:13;7.13;;;4.22;;
59410;SDS011;45215;32.610;-115.482;2022-09-20T20:10:55;6.32;;;4.45;;
59410;SDS011;45215;32.610;-115.482;2022-09-20T20:13:47;5.60;;;3.72;;
59410;SDS011;45215;32.610;-115.482;2022-09-20T20:22:07;5.85;;;3.45;;
59410;SDS011;45215;32.610;-115.482;2022-09-20T20:24:50;7.13;;;3.85;;